Time;durP1;ratioP1;P1;durP2;ratioP2;P2;SDS_P1;SDS_P2;PMS_P1;PMS_P2;Temp;Humidity;BMP_temperature;BMP_pressure;BME280_temperature;BME280_humidity;BME280_pressure;Samples;Min_cycle;Max_cycle;Signal;HPM_P1;HPM_P2
2021/11/07 00:00:09;;;;;;;9.88;1.85;;;;;;;16.02;63.73;101010.69;4879750;29;20045;-96
2021/11/07 00:05:18;;;;;;;8.85;2.35;;;;;;;15.73;65.40;101027.13;4882523;29;20029;-96
2021/11/07 00:08:07;;;;;;;10.35;2.60;;;;;;;15.86;64.49;101021.69;4883700;29;20066;-96
2021/11/07 00:10:47;;;;;;;9.52;2.50;;;;;;;16.04;64.08;101028.13;4884254;29;20092;-96
2021/11/07 00:13:23;;;;;;;11.40;1.85;;;;;;;15.54;64.90;101035.66;4882955;29;20040;-96
2021/11/07 00:15:48;;;;;;;14.65;2.85;;;;;;;15.71;64.47;101055.47;4955049;23;20488;-96
2021/11/07 00:18:19;;;;;;;12.20;3.15;;;;;;;15.28;64.19;101035.03;4919893;29;20029;-95
2021/11/07 00:20:55;;;;;;;15.13;3.60;;;;;;;15.46;63.11;101041.56;4917360;29;20032;-96
2021/11/07 00:25:52;;;;;;;15.10;2.22;;;;;;;15.61;62.78;101065.13;4913129;29;20025;-96
2021/11/07 00:28:54;;;;;;;15.25;2.53;;;;;;;15.52;62.18;101060.53;4929338;29;20038;-96
2021/11/07 00:31:20;;;;;;;15.85;2.58;;;;;;;15.42;61.65;101066.56;4934371;29;20048;-96
2021/11/07 00:36:19;;;;;;;16.92;2.28;;;;;;;15.43;61.82;101070.88;4938641;29;20034;-96
2021/11/07 00:38:52;;;;;;;16.40;2.95;;;;;;;15.26;61.94;101074.84;4935767;29;20039;-96
2021/11/07 00:41:34;;;;;;;14.45;2.38;;;;;;;15.18;62.47;101069.28;4928691;29;20042;-96
2021/11/07 00:44:06;;;;;;;13.23;2.50;;;;;;;15.11;61.79;101083.13;4928795;29;20079;-96
2021/11/07 00:49:06;;;;;;;18.95;2.47;;;;;;;15.01;62.28;101083.81;4929404;29;20498;-96
2021/11/07 00:56:40;;;;;;;;;;;;;;;14.91;61.96;101097.84;4928952;29;20068;-96
2021/11/07 01:01:39;;;;;;;16.33;3.03;;;;;;;14.83;62.64;101085.19;4927548;29;20040;-96
2021/11/07 01:04:10;;;;;;;21.85;2.97;;;;;;;14.77;62.69;101085.66;4911094;29;20067;-96
2021/11/07 01:06:36;;;;;;;19.80;4.00;;;;;;;14.86;61.89;101087.63;4912797;29;20031;-96
2021/11/07 01:09:03;;;;;;;19.80;3.50;;;;;;;14.87;62.62;101078.75;4913423;29;20099;-96
2021/11/07 01:11:29;;;;;;;22.17;4.05;;;;;;;15.02;62.51;101082.00;4913224;29;20034;-96
2021/11/07 01:13:55;;;;;;;20.17;3.85;;;;;;;15.18;62.44;101100.19;4913885;29;20029;-96
2021/11/07 01:16:21;;;;;;;27.83;5.60;;;;;;;14.78;63.43;101090.00;4914857;29;20028;-96
2021/11/07 01:18:47;;;;;;;19.98;4.63;;;;;;;14.91;63.11;101082.84;4931824;29;20088;-96
2021/11/07 01:21:14;;;;;;;17.50;3.38;;;;;;;14.98;61.82;101088.50;4930873;29;20032;-96
2021/11/07 01:24:03;;;;;;;23.58;4.03;;;;;;;15.00;62.02;101087.41;4929787;29;20025;-96
2021/11/07 01:26:33;;;;;;;14.80;3.83;;;;;;;15.01;62.44;101083.81;4930593;29;20020;-96
2021/11/07 01:29:22;;;;;;;19.70;4.30;;;;;;;14.94;62.67;101089.69;4931161;29;20052;-96
2021/11/07 01:31:49;;;;;;;18.13;3.25;;;;;;;15.01;62.43;101078.53;4921822;29;20041;-96
2021/11/07 01:34:26;;;;;;;22.27;3.38;;;;;;;15.12;62.37;101090.94;4912283;29;20028;-96
2021/11/07 01:36:59;;;;;;;14.48;2.83;;;;;;;15.05;62.56;101089.72;4931794;29;20084;-96
2021/11/07 01:39:45;;;;;;;15.30;2.45;;;;;;;15.11;62.79;101105.13;4930167;29;20024;-96
2021/11/07 01:42:24;;;;;;;17.30;3.33;;;;;;;15.05;62.55;101093.19;4929734;29;20028;-96
2021/11/07 01:44:57;;;;;;;14.27;2.92;;;;;;;14.93;62.95;101074.75;4928859;29;20036;-96
2021/11/07 01:47:24;;;;;;;22.58;3.72;;;;;;;14.86;62.18;101088.44;4927164;29;20499;-96
2021/11/07 01:49:50;;;;;;;18.13;2.80;;;;;;;14.89;62.42;101090.03;4927342;29;20095;-96
2021/11/07 01:52:16;;;;;;;18.33;3.20;;;;;;;14.73;62.83;101089.47;4925077;29;20035;-96
2021/11/07 01:57:16;;;;;;;16.33;3.05;;;;;;;14.80;62.16;101101.28;4926002;29;20482;-96
2021/11/07 01:59:47;;;;;;;17.98;3.63;;;;;;;14.73;62.86;101106.22;4924286;29;20490;-96
2021/11/07 02:02:21;;;;;;;16.02;2.75;;;;;;;14.86;61.96;101122.00;4927945;29;20091;-96
2021/11/07 02:04:48;;;;;;;22.02;3.60;;;;;;;14.38;62.50;101106.13;4927816;29;20041;-96
2021/11/07 02:07:14;;;;;;;17.33;3.05;;;;;;;14.72;62.46;101108.97;4911948;29;20040;-96
2021/11/07 02:09:40;;;;;;;13.20;2.47;;;;;;;14.73;61.92;101110.63;4932033;29;20025;-95
2021/11/07 02:12:07;;;;;;;17.55;3.50;;;;;;;14.73;62.42;101124.72;4934710;29;20322;-96
2021/11/07 02:14:33;;;;;;;22.75;3.63;;;;;;;14.80;62.41;101122.44;4935826;29;20084;-96
2021/11/07 02:17:00;;;;;;;19.10;4.68;;;;;;;14.73;61.50;101105.34;4939233;29;20025;-95
2021/11/07 02:19:28;;;;;;;17.65;2.70;;;;;;;14.84;62.01;101105.41;4937233;28;20092;-95
2021/11/07 02:21:55;;;;;;;18.20;3.78;;;;;;;14.55;61.50;101102.22;4924482;29;20009;-96
2021/11/07 02:24:21;;;;;;;14.70;3.45;;;;;;;14.75;61.62;101116.66;4924661;29;20024;-96
2021/11/07 02:26:57;;;;;;;17.50;2.80;;;;;;;14.90;61.73;101131.38;4924222;29;20033;-96
2021/11/07 02:29:25;;;;;;;17.17;3.03;;;;;;;14.83;61.82;101095.75;4924287;29;20028;-95
2021/11/07 02:31:55;;;;;;;17.10;2.72;;;;;;;14.96;61.85;101117.69;4913893;29;20028;-96
2021/11/07 02:34:26;;;;;;;18.13;3.58;;;;;;;15.02;61.66;101116.38;4916592;29;20134;-96
2021/11/07 02:36:54;;;;;;;15.95;3.15;;;;;;;14.98;61.18;101113.13;4932430;29;20043;-96
2021/11/07 02:39:21;;;;;;;14.95;2.63;;;;;;;14.86;61.56;101096.38;4917573;29;20040;-96
2021/11/07 02:41:48;;;;;;;15.40;2.90;;;;;;;14.78;61.87;101103.22;4915796;29;20525;-96
2021/11/07 02:44:37;;;;;;;19.30;3.55;;;;;;;14.67;62.25;101089.00;4931761;29;20092;-96
2021/11/07 02:47:06;;;;;;;16.25;3.42;;;;;;;14.80;62.07;101106.59;4925464;29;20087;-96
2021/11/07 02:49:32;;;;;;;14.43;3.00;;;;;;;14.59;62.11;101107.22;4914815;29;20106;-96
2021/11/07 02:52:00;;;;;;;13.60;2.65;;;;;;;14.61;61.85;101096.53;4912230;29;20056;-95
2021/11/07 02:54:26;;;;;;;22.73;2.70;;;;;;;14.71;62.27;101108.13;4918769;29;20039;-96
2021/11/07 02:56:56;;;;;;;14.23;2.50;;;;;;;14.76;61.17;101100.69;4929686;29;20028;-96
2021/11/07 02:59:27;;;;;;;16.90;3.00;;;;;;;14.81;61.36;101101.19;4930249;29;20121;-96
2021/11/07 03:01:55;;;;;;;15.77;3.33;;;;;;;14.94;61.49;101114.31;4930889;29;20040;-96
2021/11/07 03:04:22;;;;;;;16.23;2.58;;;;;;;14.74;61.06;101094.66;4913121;29;20029;-96
2021/11/07 03:06:49;;;;;;;17.63;2.42;;;;;;;14.79;60.78;101115.47;4912660;29;20037;-96
2021/11/07 03:09:21;;;;;;;17.40;3.40;;;;;;;14.61;60.37;101105.31;4911804;29;20048;-96
2021/11/07 03:11:47;;;;;;;;;;;;;;;14.60;60.74;101122.13;4911285;29;20100;-96
2021/11/07 03:14:20;;;;;;;13.15;2.85;;;;;;;14.64;61.25;101106.88;4915015;29;19919;-96
2021/11/07 03:16:46;;;;;;;20.75;3.13;;;;;;;14.52;61.60;101105.94;4911270;29;20044;-96
2021/11/07 03:19:14;;;;;;;15.00;2.58;;;;;;;14.58;60.89;101108.16;4910107;29;20033;-96
2021/11/07 03:21:40;;;;;;;20.92;3.92;;;;;;;14.50;61.46;101094.66;4910572;29;20029;-96
2021/11/07 03:24:07;;;;;;;13.45;3.05;;;;;;;14.66;61.31;101113.72;4909385;29;20488;-96
2021/11/07 03:26:36;;;;;;;18.35;3.25;;;;;;;14.44;61.16;101084.53;4907696;29;20037;-96
2021/11/07 03:29:04;;;;;;;19.15;3.22;;;;;;;14.45;61.37;101097.66;4904809;29;20139;-96
2021/11/07 03:34:04;;;;;;;16.63;3.30;;;;;;;14.45;60.65;101113.50;4907294;29;20489;-96
2021/11/07 03:36:42;;;;;;;12.73;2.83;;;;;;;14.50;61.42;101120.25;4907411;29;20403;-96
2021/11/07 03:39:10;;;;;;;16.50;3.22;;;;;;;14.33;61.60;101132.84;4906958;29;20031;-96
2021/11/07 03:41:39;;;;;;;14.75;3.20;;;;;;;14.34;61.17;101115.22;4906315;29;20440;-96
2021/11/07 03:44:06;;;;;;;20.38;3.97;;;;;;;14.08;61.85;101126.72;4905805;29;20471;-96
2021/11/07 03:46:32;;;;;;;16.75;2.95;;;;;;;14.11;61.94;101122.16;4905886;29;20027;-96
2021/11/07 03:48:58;;;;;;;15.40;2.80;;;;;;;14.07;62.03;101119.72;4905743;29;20036;-95
2021/11/07 03:51:27;;;;;;;22.90;3.42;;;;;;;14.16;62.41;101136.72;4908273;29;20471;-96
2021/11/07 03:53:52;;;;;;;16.63;3.28;;;;;;;14.13;62.58;101136.94;4921498;29;20543;-96
2021/11/07 03:56:18;;;;;;;11.73;2.67;;;;;;;14.18;62.25;101140.09;4905418;29;20032;-96
2021/11/07 03:58:44;;;;;;;28.45;4.90;;;;;;;14.07;62.80;101145.28;4904966;29;20033;-96
2021/11/07 04:01:10;;;;;;;17.70;4.15;;;;;;;14.06;62.73;101138.34;4929477;29;20064;-95
2021/11/07 04:03:35;;;;;;;18.55;3.45;;;;;;;14.05;63.15;101142.75;4913022;29;20053;-96
2021/11/07 04:06:02;;;;;;;18.65;3.67;;;;;;;14.05;62.85;101144.56;4916197;29;20068;-96
2021/11/07 04:08:27;;;;;;;21.02;4.05;;;;;;;14.09;63.06;101153.94;4925193;29;20119;-96
2021/11/07 04:10:54;;;;;;;10.95;2.95;;;;;;;14.11;63.20;101162.59;4923881;29;20059;-96
2021/11/07 04:13:19;;;;;;;20.27;3.33;;;;;;;14.02;62.25;101152.69;4924334;29;20032;-96
2021/11/07 04:15:45;;;;;;;16.33;3.90;;;;;;;14.10;62.77;101160.94;4922891;29;20068;-96
2021/11/07 04:18:11;;;;;;;13.70;2.58;;;;;;;14.11;63.02;101162.59;4923065;29;20032;-96
2021/11/07 04:20:36;;;;;;;13.57;3.20;;;;;;;14.12;62.65;101161.66;4920750;29;20066;-96
2021/11/07 04:23:03;;;;;;;10.95;3.03;;;;;;;14.12;62.76;101169.59;4921686;29;20024;-96
2021/11/07 04:25:28;;;;;;;13.75;3.60;;;;;;;14.10;62.09;101166.22;4919456;29;20131;-96
2021/11/07 04:27:54;;;;;;;16.85;3.53;;;;;;;14.09;62.63;101159.22;4920664;29;20063;-96
2021/11/07 04:30:19;;;;;;;18.30;3.47;;;;;;;13.94;62.85;101176.16;4902605;29;20410;-96
2021/11/07 04:32:45;;;;;;;16.08;3.47;;;;;;;13.85;62.75;101182.94;4903714;29;20332;-96
2021/11/07 04:35:11;;;;;;;12.15;2.85;;;;;;;13.86;63.12;101182.81;4911477;29;20372;-96
2021/11/07 04:37:40;;;;;;;13.18;2.85;;;;;;;13.88;63.15;101172.13;4939198;29;20012;-96
2021/11/07 04:40:07;;;;;;;16.65;3.58;;;;;;;13.91;62.82;101177.22;4940306;29;20008;-95
2021/11/07 04:42:33;;;;;;;15.02;4.00;;;;;;;13.73;63.43;101178.50;4940580;29;20016;-96
2021/11/07 04:44:59;;;;;;;16.05;3.00;;;;;;;13.69;62.82;101164.66;4940136;29;20068;-96
2021/11/07 04:47:25;;;;;;;13.48;2.75;;;;;;;13.75;63.28;101158.97;4933231;29;20012;-96
2021/11/07 04:49:53;;;;;;;17.50;3.00;;;;;;;13.81;63.16;101161.16;4922418;29;20009;-96
2021/11/07 04:52:20;;;;;;;19.95;3.10;;;;;;;13.72;63.51;101150.41;4922071;29;20025;-95
2021/11/07 04:54:45;;;;;;;16.48;2.90;;;;;;;13.59;63.01;101147.78;4921955;29;20032;-96
2021/11/07 04:57:11;;;;;;;20.38;2.70;;;;;;;13.57;62.91;101157.59;4910173;29;20037;-96
2021/11/07 04:59:36;;;;;;;16.33;2.53;;;;;;;13.63;63.04;101154.53;4914259;29;20099;-96
2021/11/07 05:02:02;;;;;;;11.40;2.28;;;;;;;13.61;62.85;101157.28;4936598;29;20068;-96
2021/11/07 05:04:29;;;;;;;17.55;3.05;;;;;;;13.58;63.05;101149.56;4941182;29;20044;-96
2021/11/07 05:06:56;;;;;;;13.52;3.70;;;;;;;13.58;62.36;101139.00;4941077;29;20044;-96
2021/11/07 05:09:23;;;;;;;16.98;3.35;;;;;;;13.44;62.95;101142.59;4940971;29;20036;-96
2021/11/07 05:11:48;;;;;;;14.23;2.78;;;;;;;13.45;62.90;101143.47;4940932;29;20043;-96
2021/11/07 05:14:16;;;;;;;10.13;2.78;;;;;;;13.34;62.40;101135.41;4940900;29;20028;-96
2021/11/07 05:16:42;;;;;;;13.98;2.97;;;;;;;13.25;63.32;101136.84;4925553;29;20032;-96
2021/11/07 05:19:08;;;;;;;22.77;3.72;;;;;;;13.25;62.96;101142.09;4940829;29;20067;-95
2021/11/07 05:21:35;;;;;;;15.32;2.88;;;;;;;13.18;62.81;101135.56;4939516;29;20104;-95
2021/11/07 05:24:00;;;;;;;22.23;3.15;;;;;;;13.12;62.92;101141.25;4931938;29;20031;-96
2021/11/07 05:26:26;;;;;;;11.50;2.88;;;;;;;13.15;63.01;101148.94;4933163;29;20032;-96
2021/11/07 05:28:52;;;;;;;15.93;2.30;;;;;;;13.00;62.33;101154.31;4920587;29;20033;-96
2021/11/07 05:31:18;;;;;;;13.95;2.63;;;;;;;12.88;62.82;101155.13;4909055;29;20406;-96
2021/11/07 05:33:44;;;;;;;15.73;3.35;;;;;;;12.81;63.13;101143.28;4904024;29;20131;-96
2021/11/07 05:36:10;;;;;;;17.38;3.03;;;;;;;12.83;62.66;101147.50;4911357;29;20020;-96
2021/11/07 05:38:35;;;;;;;14.10;3.03;;;;;;;12.84;62.71;101143.09;4901050;29;20040;-96
2021/11/07 05:41:01;;;;;;;9.50;2.38;;;;;;;12.81;62.66;101136.22;4900717;29;20036;-96
2021/11/07 05:43:26;;;;;;;12.98;2.55;;;;;;;12.67;62.30;101137.13;4900297;29;20112;-96
2021/11/07 05:45:52;;;;;;;12.10;2.92;;;;;;;12.49;62.74;101154.13;4900032;29;20025;-96
2021/11/07 05:48:18;;;;;;;8.55;2.30;;;;;;;12.42;63.11;101164.22;4904829;29;20394;-96
2021/11/07 05:50:45;;;;;;;13.38;3.15;;;;;;;12.53;62.98;101165.31;4914840;29;20506;-96
2021/11/07 05:53:11;;;;;;;16.85;4.20;;;;;;;12.44;63.10;101170.22;4940544;29;20012;-95
2021/11/07 05:55:36;;;;;;;21.70;4.95;;;;;;;12.59;62.70;101165.75;4934120;29;20052;-96
2021/11/07 05:58:03;;;;;;;23.48;5.55;;;;;;;12.70;63.14;101170.34;4924265;29;20029;-96
2021/11/07 06:00:29;;;;;;;23.52;5.13;;;;;;;12.67;63.48;101168.75;4925529;29;20065;-95
2021/11/07 06:02:55;;;;;;;20.60;5.45;;;;;;;12.69;63.56;101161.56;4924832;29;20060;-95
2021/11/07 06:05:21;;;;;;;18.77;4.95;;;;;;;12.71;63.67;101153.56;4925353;29;20032;-96
2021/11/07 06:07:47;;;;;;;17.85;4.22;;;;;;;12.72;64.15;101178.13;4922056;29;20368;-96
2021/11/07 06:10:14;;;;;;;24.58;4.90;;;;;;;12.69;64.34;101177.38;4916888;29;20064;-96
2021/11/07 06:12:40;;;;;;;30.20;5.85;;;;;;;12.61;64.71;101170.94;4914120;29;20032;-96
2021/11/07 06:15:07;;;;;;;18.67;4.93;;;;;;;12.75;64.31;101175.31;4912064;29;20067;-96
2021/11/07 06:17:33;;;;;;;28.77;7.00;;;;;;;12.83;63.86;101167.75;4912580;29;20104;-96
2021/11/07 06:19:58;;;;;;;26.20;5.32;;;;;;;12.86;64.10;101178.09;4919101;29;20573;-96
2021/11/07 06:22:23;;;;;;;27.23;5.43;;;;;;;12.87;64.15;101171.88;4928414;29;20096;-96
2021/11/07 06:24:49;;;;;;;25.38;5.60;;;;;;;12.75;64.57;101162.13;4911796;29;20024;-96
2021/11/07 06:27:15;;;;;;;24.00;6.28;;;;;;;12.91;64.12;101178.63;4912263;29;20031;-95
2021/11/07 06:29:42;;;;;;;28.65;6.38;;;;;;;12.98;63.99;101174.66;4915464;29;20028;-96
2021/11/07 06:32:08;;;;;;;20.67;4.30;;;;;;;12.91;64.01;101170.72;4914928;29;20080;-96
2021/11/07 06:34:37;;;;;;;18.33;4.47;;;;;;;12.88;64.06;101181.47;4913058;29;20048;-96
2021/11/07 06:37:06;;;;;;;22.70;5.03;;;;;;;12.94;64.10;101183.72;4913794;29;20032;-96
2021/11/07 06:39:32;;;;;;;20.70;4.93;;;;;;;12.83;64.30;101173.03;5024534;23;20905;-96
2021/11/07 06:41:57;;;;;;;22.40;4.15;;;;;;;12.93;64.28;101174.09;4905166;29;20075;-96
2021/11/07 06:44:23;;;;;;;17.98;3.70;;;;;;;12.97;63.94;101188.75;4892501;29;20025;-95
2021/11/07 06:46:49;;;;;;;24.40;4.50;;;;;;;12.87;64.21;101190.31;4894978;29;20041;-96
2021/11/07 06:49:14;;;;;;;21.27;4.35;;;;;;;12.85;63.84;101186.94;4896316;29;20021;-96
2021/11/07 06:51:45;;;;;;;16.98;4.05;;;;;;;12.87;63.93;101179.78;4898148;29;20025;-96
2021/11/07 06:54:12;;;;;;;19.70;3.40;;;;;;;12.82;64.35;101181.88;4909866;29;20108;-96
2021/11/07 06:56:39;;;;;;;27.88;4.70;;;;;;;12.82;64.31;101203.81;4914411;29;20017;-96
2021/11/07 06:59:06;;;;;;;16.52;3.92;;;;;;;12.77;64.40;101200.59;4923908;29;20080;-96
2021/11/07 07:01:32;;;;;;;18.55;3.67;;;;;;;12.81;64.59;101198.63;4916191;29;20031;-96
2021/11/07 07:03:58;;;;;;;22.42;3.65;;;;;;;12.76;64.12;101198.09;4910358;29;20029;-96
2021/11/07 07:06:24;;;;;;;26.02;4.70;;;;;;;12.63;64.70;101212.03;4909257;29;20033;-96
2021/11/07 07:08:56;;;;;;;18.52;3.63;;;;;;;12.66;64.28;101203.94;4895844;29;20029;-96
2021/11/07 07:14:26;;;;;;;16.88;3.53;;;;;;;12.80;64.19;101225.94;4866167;29;20040;-96
2021/11/07 07:27:22;;;;;;;33.13;5.10;;;;;;;12.91;63.81;101223.44;4894056;29;20040;-96
2021/11/07 07:35:08;;;;;;;21.65;4.20;;;;;;;13.16;64.64;101240.31;4888126;29;20029;-96
2021/11/07 07:37:34;;;;;;;21.05;4.57;;;;;;;13.23;64.47;101238.94;4882279;29;20025;-96
2021/11/07 07:39:59;;;;;;;24.75;4.95;;;;;;;13.21;64.49;101240.84;4895690;29;20036;-96
2021/11/07 07:42:26;;;;;;;24.45;5.22;;;;;;;13.29;64.16;101249.13;4888275;29;20088;-96
2021/11/07 07:44:52;;;;;;;23.35;4.80;;;;;;;13.29;64.02;101267.56;4888909;29;20033;-96
2021/11/07 07:47:19;;;;;;;21.98;4.88;;;;;;;13.27;63.97;101266.84;4889199;29;20025;-96
2021/11/07 07:49:48;;;;;;;28.00;4.85;;;;;;;13.39;63.76;101268.69;4883560;29;20080;-96
2021/11/07 07:52:16;;;;;;;27.25;4.85;;;;;;;13.45;63.27;101267.44;4881240;29;20045;-96
2021/11/07 07:54:41;;;;;;;24.75;6.00;;;;;;;13.43;63.70;101272.81;4881405;29;20623;-96
2021/11/07 07:57:07;;;;;;;23.13;4.50;;;;;;;13.55;63.10;101275.59;4882808;29;20037;-96
2021/11/07 07:59:32;;;;;;;25.38;4.35;;;;;;;13.47;63.34;101268.19;5332600;23;20015;-95
2021/11/07 08:01:58;;;;;;;22.67;4.78;;;;;;;13.36;62.30;101252.22;5294472;23;20111;-96
2021/11/07 08:04:24;;;;;;;33.03;5.20;;;;;;;13.45;62.76;101270.91;4921044;29;20043;-96
2021/11/07 08:06:50;;;;;;;29.70;4.93;;;;;;;13.55;63.13;101271.16;4883335;29;20033;-94
2021/11/07 08:09:15;;;;;;;26.45;4.43;;;;;;;13.62;62.71;101267.13;4897473;29;20065;-96
2021/11/07 08:11:42;;;;;;;26.85;4.90;;;;;;;13.72;62.60;101277.91;4901980;29;20077;-95
2021/11/07 08:14:07;;;;;;;16.90;4.43;;;;;;;13.75;61.69;101285.66;4898658;29;20479;-94
2021/11/07 08:16:35;;;;;;;26.45;4.47;;;;;;;13.82;61.83;101292.22;4898474;29;20044;-95
2021/11/07 08:19:01;;;;;;;23.63;4.65;;;;;;;13.67;61.95;101290.59;4900020;29;20033;-96
2021/11/07 08:21:30;;;;;;;19.40;3.58;;;;;;;13.89;61.43;101288.19;4897476;29;20049;-96
2021/11/07 08:23:56;;;;;;;26.25;4.40;;;;;;;13.83;61.81;101282.50;4906340;29;20043;-95
2021/11/07 08:26:22;;;;;;;20.02;3.83;;;;;;;13.97;61.62;101284.19;4917463;29;20028;-96
2021/11/07 08:31:26;;;;;;;22.45;3.60;;;;;;;14.04;61.62;101262.56;5280186;23;20060;-96
2021/11/07 08:33:52;;;;;;;18.42;3.55;;;;;;;14.27;61.50;101281.22;4891061;29;20028;-94
2021/11/07 08:36:25;;;;;;;18.63;3.70;;;;;;;14.26;60.64;101283.03;4879696;29;20025;-95
2021/11/07 08:38:58;;;;;;;18.75;4.10;;;;;;;14.54;60.58;101285.53;4888227;29;20032;-96
2021/11/07 08:41:24;;;;;;;26.30;5.10;;;;;;;14.38;61.05;101291.91;4898208;29;20108;-95
2021/11/07 09:05:08;;;;;;;21.45;5.00;;;;;;;15.20;58.59;101320.50;4904561;29;20053;-96
2021/11/07 09:10:07;;;;;;;20.80;3.55;;;;;;;15.63;57.77;101326.09;4902437;29;20032;-93
2021/11/07 09:12:33;;;;;;;23.20;3.08;;;;;;;15.67;57.37;101319.63;4906247;29;20384;-96
2021/11/07 09:14:58;;;;;;;27.58;4.45;;;;;;;15.73;57.12;101331.59;4893654;29;20029;-96
2021/11/07 09:17:24;;;;;;;25.50;4.30;;;;;;;15.92;56.98;101339.00;4889113;29;20357;-96
2021/11/07 09:19:53;;;;;;;21.90;4.78;;;;;;;16.25;56.43;101334.72;4898193;29;20038;-94
2021/11/07 09:25:05;;;;;;;22.42;4.25;;;;;;;16.34;56.47;101341.97;4879181;29;20440;-96
2021/11/07 09:27:41;;;;;;;23.10;4.70;;;;;;;16.45;56.22;101339.34;4880639;29;20057;-96
2021/11/07 09:30:14;;;;;;;17.48;3.78;;;;;;;16.68;55.79;101335.84;4883213;29;20033;-95
2021/11/07 09:35:35;;;;;;;23.10;3.38;;;;;;;17.26;54.03;101325.91;4893467;29;20037;-94
2021/11/07 09:38:12;;;;;;;17.95;3.28;;;;;;;17.39;53.91;101336.34;4870827;29;20033;-95
2021/11/07 09:40:43;;;;;;;18.95;3.47;;;;;;;17.59;53.38;101340.00;4895999;29;20036;-93
2021/11/07 09:43:39;;;;;;;19.67;3.95;;;;;;;17.67;52.29;101334.88;4897350;29;20040;-95
2021/11/07 09:48:36;;;;;;;17.23;3.33;;;;;;;19.15;51.02;101333.69;4885967;29;20029;-95
2021/11/07 09:51:05;;;;;;;16.52;3.10;;;;;;;19.62;49.63;101330.38;4896024;29;20127;-94
2021/11/07 09:53:32;;;;;;;21.38;5.47;;;;;;;19.61;48.53;101334.03;4900203;29;20387;-94
2021/11/07 09:55:57;;;;;;;16.75;3.72;;;;;;;20.69;47.11;101329.34;4897032;29;20027;-95
2021/11/07 09:58:23;;;;;;;21.45;3.78;;;;;;;21.41;45.42;101335.66;4896618;29;20029;-96
2021/11/07 10:00:53;;;;;;;22.13;5.25;;;;;;;22.05;43.63;101320.31;4888425;29;20404;-96
2021/11/07 10:03:21;;;;;;;18.08;3.75;;;;;;;21.66;43.46;101328.69;4887231;29;20036;-95
2021/11/07 10:05:50;;;;;;;19.10;3.20;;;;;;;21.92;42.87;101336.78;4888113;29;20025;-96
2021/11/07 10:08:16;;;;;;;18.67;3.63;;;;;;;22.42;41.75;101337.94;4891750;29;20031;-96
2021/11/07 10:13:23;;;;;;;17.63;3.38;;;;;;;22.81;41.39;101345.50;4891441;29;20145;-96
2021/11/07 10:16:05;;;;;;;21.33;3.92;;;;;;;23.26;41.27;101338.97;4887549;29;20021;-96
2021/11/07 10:21:22;;;;;;;26.38;4.28;;;;;;;23.74;39.25;101325.75;4883990;29;20017;-96
2021/11/07 10:24:03;;;;;;;15.68;3.30;;;;;;;23.52;39.76;101346.03;4901389;29;20033;-96
2021/11/07 10:26:37;;;;;;;14.82;3.17;;;;;;;23.38;39.51;101350.19;4897963;29;20124;-94
2021/11/07 10:29:04;;;;;;;17.05;3.95;;;;;;;23.07;40.12;101347.28;4889887;29;20036;-95
2021/11/07 10:39:31;;;;;;;17.63;3.45;;;;;;;22.47;39.68;101348.16;4886911;29;20302;-95
2021/11/07 10:52:37;;;;;;;20.90;3.85;;;;;;;23.56;39.06;101333.97;4946644;23;20056;-93
2021/11/07 10:55:07;;;;;;;22.70;4.18;;;;;;;23.48;38.73;101332.13;4871125;29;20087;-95
2021/11/07 10:57:33;;;;;;;11.95;2.78;;;;;;;23.66;38.94;101339.16;4872067;29;20093;-93
2021/11/07 11:00:26;;;;;;;13.82;3.83;;;;;;;22.80;39.58;101335.78;4867241;29;20034;-96
2021/11/07 11:03:19;;;;;;;15.82;3.03;;;;;;;22.55;40.19;101341.03;4885162;29;20037;-96
2021/11/07 11:05:54;;;;;;;21.33;3.97;;;;;;;22.82;39.74;101330.25;4874827;29;20017;-96
2021/11/07 11:08:35;;;;;;;18.65;3.65;;;;;;;22.37;40.28;101337.56;4867027;29;20029;-96
2021/11/07 11:11:54;;;;;;;17.70;3.53;;;;;;;22.48;40.14;101325.78;4868336;29;20108;-96
2021/11/07 11:17:33;;;;;;;21.63;3.22;;;;;;;22.42;40.09;101334.44;4833869;29;20501;-94
2021/11/07 11:20:30;;;;;;;19.88;3.28;;;;;;;22.73;39.80;101321.38;4826199;29;20493;-95
2021/11/07 11:23:10;;;;;;;22.10;3.47;;;;;;;21.96;40.11;101305.22;4861191;29;20037;-95
2021/11/07 11:25:42;;;;;;;13.40;3.88;;;;;;;22.28;40.37;101307.28;4864752;29;20029;-96
2021/11/07 11:28:16;;;;;;;17.55;3.88;;;;;;;22.64;39.84;101300.91;4865790;29;20029;-96
2021/11/07 11:36:11;;;;;;;12.57;3.00;;;;;;;21.69;40.99;101304.34;4873817;29;20029;-96
2021/11/07 11:39:11;;;;;;;17.75;3.58;;;;;;;21.85;40.63;101305.47;4874641;29;20033;-96
2021/11/07 11:44:15;;;;;;;26.20;3.45;;;;;;;21.51;40.89;101306.22;4874940;29;20044;-96
2021/11/07 11:50:21;;;;;;;18.75;3.72;;;;;;;21.76;40.68;101307.22;4875027;29;20069;-96
2021/11/07 12:00:05;;;;;;;24.73;3.35;;;;;;;21.51;40.76;101290.19;4856071;29;20062;-96
2021/11/07 12:02:40;;;;;;;18.83;3.80;;;;;;;21.38;41.71;101285.19;4854223;29;20045;-96
2021/11/07 12:05:30;;;;;;;19.52;3.22;;;;;;;21.74;41.14;101293.19;4862891;29;20051;-96
2021/11/07 12:08:59;;;;;;;25.85;4.53;;;;;;;21.84;40.67;101285.94;4870688;29;20056;-96
2021/11/07 12:11:22;;;;;;;17.17;4.15;;;;;;;21.30;40.55;101290.44;4863587;29;20037;-96
2021/11/07 12:13:54;;;;;;;20.85;3.10;;;;;;;21.53;40.44;101289.03;4877426;29;20029;-96
2021/11/07 12:16:52;;;;;;;15.60;3.05;;;;;;;21.87;40.22;101290.09;4876480;29;20021;-96
2021/11/07 12:19:20;;;;;;;25.45;3.80;;;;;;;21.54;40.31;101297.88;4870170;29;20049;-96
2021/11/07 12:21:49;;;;;;;18.25;3.60;;;;;;;20.55;41.13;101294.13;4870877;29;20476;-96
2021/11/07 12:24:19;;;;;;;22.08;3.53;;;;;;;21.00;40.39;101288.00;4872037;29;20097;-96
2021/11/07 12:26:45;;;;;;;22.45;3.72;;;;;;;21.27;41.18;101275.59;4868675;29;20038;-96
2021/11/07 12:29:12;;;;;;;25.45;4.78;;;;;;;21.39;40.05;101268.16;4873364;29;20033;-96
2021/11/07 12:32:03;;;;;;;20.85;3.42;;;;;;;21.11;40.12;101265.59;4875958;29;20030;-96
2021/11/07 12:34:50;;;;;;;14.90;3.45;;;;;;;21.12;40.51;101269.09;4851065;29;20420;-96
2021/11/07 12:43:04;;;;;;;20.15;3.75;;;;;;;20.53;41.56;101276.59;4867367;29;20139;-96
2021/11/07 12:45:41;;;;;;;17.40;3.35;;;;;;;20.55;42.04;101272.75;4864190;29;20511;-96
2021/11/07 12:48:09;;;;;;;20.48;3.63;;;;;;;19.95;42.52;101278.47;4880174;29;20548;-96
2021/11/07 12:51:00;;;;;;;14.73;3.78;;;;;;;20.09;42.42;101255.84;4967234;23;20037;-96
2021/11/07 12:53:28;;;;;;;23.10;3.78;;;;;;;19.69;42.85;101248.06;4898347;29;20020;-96
2021/11/07 12:55:54;;;;;;;15.48;3.05;;;;;;;19.42;43.49;101258.47;4901678;29;20033;-96
2021/11/07 12:58:20;;;;;;;17.75;3.20;;;;;;;19.42;43.74;101249.66;4925585;23;20136;-96
2021/11/07 13:00:46;;;;;;;23.80;3.65;;;;;;;19.31;44.05;101242.66;4902769;29;20073;-96
2021/11/07 13:08:21;;;;;;;22.40;4.30;;;;;;;19.38;44.56;101250.91;4900840;29;20067;-93
2021/11/07 13:10:58;;;;;;;16.98;3.72;;;;;;;19.38;43.98;101237.59;4903295;29;20021;-93
2021/11/07 13:16:09;;;;;;;19.60;3.17;;;;;;;19.00;45.76;101239.28;4905463;29;20037;-95
2021/11/07 13:27:16;;;;;;;22.15;3.25;;;;;;;18.65;45.08;101242.41;4998211;23;20052;-94
2021/11/07 13:29:28;;;;;;;24.23;3.83;;;;;;;19.07;44.79;101250.22;4911346;29;20048;-95
2021/11/07 13:34:28;;;;;;;19.05;3.10;;;;;;;18.90;45.48;101249.06;4902594;29;20087;-96
2021/11/07 13:36:56;;;;;;;13.95;3.05;;;;;;;18.87;45.38;101239.53;4900924;29;20029;-96
2021/11/07 13:39:29;;;;;;;18.88;3.33;;;;;;;18.12;45.85;101236.34;4882953;29;20040;-96
2021/11/07 13:41:59;;;;;;;19.17;3.30;;;;;;;18.36;45.92;101235.19;4884493;29;20031;-96
2021/11/07 13:44:28;;;;;;;18.80;4.38;;;;;;;18.48;45.26;101239.41;4884578;29;20025;-96
2021/11/07 13:47:00;;;;;;;13.95;3.47;;;;;;;18.35;45.59;101233.50;4889648;29;20029;-96
2021/11/07 13:49:25;;;;;;;15.13;2.75;;;;;;;18.23;45.91;101233.59;4892461;29;20032;-96
2021/11/07 13:51:54;;;;;;;20.88;4.20;;;;;;;17.60;46.68;101216.91;4888363;29;20391;-93
2021/11/07 13:54:20;;;;;;;19.65;3.92;;;;;;;17.39;46.96;101225.69;4881735;29;20032;-94